sensor_id;sensor_type;location;lat;lon;timestamp;P1;durP1;ratioP1;P2;durP2;ratioP2
64313;SDS011;50650;48.180;11.524;2023-04-03T00:01:04;8.02;;;4.20;;
64313;SDS011;50650;48.180;11.524;2023-04-03T00:03:30;6.30;;;4.38;;
64313;SDS011;50650;48.180;11.524;2023-04-03T00:05:57;8.48;;;4.00;;
64313;SDS011;50650;48.180;11.524;2023-04-03T00:08:24;7.00;;;4.55;;
64313;SDS011;50650;48.180;11.524;2023-04-03T00:10:50;5.53;;;4.03;;
64313;SDS011;50650;48.180;11.524;2023-04-03T00:13:17;6.40;;;3.75;;
64313;SDS011;50650;48.180;11.524;2023-04-03T00:15:45;6.20;;;4.10;;
64313;SDS011;50650;48.180;11.524;2023-04-03T00:18:11;9.13;;;4.32;;
64313;SDS011;50650;48.180;11.524;2023-04-03T00:20:38;6.47;;;4.10;;
64313;SDS011;50650;48.180;11.524;2023-04-03T00:23:04;9.35;;;4.00;;
64313;SDS011;50650;48.180;11.524;2023-04-03T00:25:30;5.15;;;3.42;;
64313;SDS011;50650;48.180;11.524;2023-04-03T00:27:57;8.25;;;3.72;;
64313;SDS011;50650;48.180;11.524;2023-04-03T00:30:23;5.30;;;3.42;;
64313;SDS011;50650;48.180;11.524;2023-04-03T00:32:51;7.72;;;3.35;;
64313;SDS011;50650;48.180;11.524;2023-04-03T00:35:18;5.70;;;3.78;;
64313;SDS011;50650;48.180;11.524;2023-04-03T00:37:46;6.55;;;3.40;;
64313;SDS011;50650;48.180;11.524;2023-04-03T00:40:14;6.05;;;3.60;;
64313;SDS011;50650;48.180;11.524;2023-04-03T00:42:41;4.30;;;3.28;;
64313;SDS011;50650;48.180;11.524;2023-04-03T00:45:26;4.80;;;3.05;;
64313;SDS011;50650;48.180;11.524;2023-04-03T00:47:56;6.20;;;3.58;;
64313;SDS011;50650;48.180;11.524;2023-04-03T00:50:24;8.32;;;3.63;;
64313;SDS011;50650;48.180;11.524;2023-04-03T00:52:51;3.80;;;2.95;;
64313;SDS011;50650;48.180;11.524;2023-04-03T00:55:18;5.88;;;3.42;;
64313;SDS011;50650;48.180;11.524;2023-04-03T00:57:45;5.78;;;3.00;;
64313;SDS011;50650;48.180;11.524;2023-04-03T01:00:13;5.47;;;3.45;;
64313;SDS011;50650;48.180;11.524;2023-04-03T01:02:41;5.00;;;3.38;;
64313;SDS011;50650;48.180;11.524;2023-04-03T01:05:09;5.65;;;3.10;;
64313;SDS011;50650;48.180;11.524;2023-04-03T01:07:35;5.72;;;3.47;;
64313;SDS011;50650;48.180;11.524;2023-04-03T01:10:03;4.43;;;3.13;;
64313;SDS011;50650;48.180;11.524;2023-04-03T01:12:33;6.05;;;2.70;;
64313;SDS011;50650;48.180;11.524;2023-04-03T01:15:02;4.38;;;3.20;;
64313;SDS011;50650;48.180;11.524;2023-04-03T01:17:31;6.13;;;3.53;;
64313;SDS011;50650;48.180;11.524;2023-04-03T01:20:11;4.80;;;3.28;;
64313;SDS011;50650;48.180;11.524;2023-04-03T01:22:56;4.88;;;3.10;;
64313;SDS011;50650;48.180;11.524;2023-04-03T01:25:25;4.05;;;2.88;;
64313;SDS011;50650;48.180;11.524;2023-04-03T01:27:52;4.93;;;3.33;;
64313;SDS011;50650;48.180;11.524;2023-04-03T01:30:19;4.72;;;2.80;;
64313;SDS011;50650;48.180;11.524;2023-04-03T01:32:48;3.67;;;2.90;;
64313;SDS011;50650;48.180;11.524;2023-04-03T01:35:14;4.25;;;2.92;;
64313;SDS011;50650;48.180;11.524;2023-04-03T01:37:41;5.90;;;3.38;;
64313;SDS011;50650;48.180;11.524;2023-04-03T01:40:07;3.90;;;2.80;;
64313;SDS011;50650;48.180;11.524;2023-04-03T01:42:34;7.65;;;3.30;;
64313;SDS011;50650;48.180;11.524;2023-04-03T01:45:01;6.22;;;2.67;;
64313;SDS011;50650;48.180;11.524;2023-04-03T01:47:27;5.60;;;3.28;;
64313;SDS011;50650;48.180;11.524;2023-04-03T01:49:55;5.15;;;3.10;;
64313;SDS011;50650;48.180;11.524;2023-04-03T01:52:22;4.07;;;3.00;;
64313;SDS011;50650;48.180;11.524;2023-04-03T01:54:48;4.97;;;3.00;;
64313;SDS011;50650;48.180;11.524;2023-04-03T01:57:15;4.40;;;2.83;;
64313;SDS011;50650;48.180;11.524;2023-04-03T01:59:41;6.70;;;2.88;;
64313;SDS011;50650;48.180;11.524;2023-04-03T02:02:08;3.75;;;2.92;;
64313;SDS011;50650;48.180;11.524;2023-04-03T02:04:34;5.47;;;2.70;;
64313;SDS011;50650;48.180;11.524;2023-04-03T02:07:02;5.20;;;2.72;;
64313;SDS011;50650;48.180;11.524;2023-04-03T02:09:28;4.40;;;2.63;;
64313;SDS011;50650;48.180;11.524;2023-04-03T02:11:55;5.65;;;2.63;;
64313;SDS011;50650;48.180;11.524;2023-04-03T02:14:21;5.53;;;2.90;;
64313;SDS011;50650;48.180;11.524;2023-04-03T02:16:48;4.38;;;2.80;;
64313;SDS011;50650;48.180;11.524;2023-04-03T02:19:15;4.13;;;2.67;;
64313;SDS011;50650;48.180;11.524;2023-04-03T02:21:41;7.07;;;2.75;;
64313;SDS011;50650;48.180;11.524;2023-04-03T02:24:09;5.68;;;2.83;;
64313;SDS011;50650;48.180;11.524;2023-04-03T02:26:36;6.65;;;2.63;;
64313;SDS011;50650;48.180;11.524;2023-04-03T02:29:02;4.20;;;2.67;;
64313;SDS011;50650;48.180;11.524;2023-04-03T02:31:28;4.43;;;2.65;;
64313;SDS011;50650;48.180;11.524;2023-04-03T02:33:55;4.70;;;2.90;;
64313;SDS011;50650;48.180;11.524;2023-04-03T02:36:21;2.63;;;2.33;;
64313;SDS011;50650;48.180;11.524;2023-04-03T02:38:48;5.03;;;2.58;;
64313;SDS011;50650;48.180;11.524;2023-04-03T02:41:15;3.25;;;2.33;;
64313;SDS011;50650;48.180;11.524;2023-04-03T02:43:42;5.20;;;2.90;;
64313;SDS011;50650;48.180;11.524;2023-04-03T02:46:08;6.85;;;2.45;;
64313;SDS011;50650;48.180;11.524;2023-04-03T02:48:36;4.47;;;2.80;;
64313;SDS011;50650;48.180;11.524;2023-04-03T02:51:02;3.53;;;2.33;;
64313;SDS011;50650;48.180;11.524;2023-04-03T02:53:29;4.78;;;2.42;;
64313;SDS011;50650;48.180;11.524;2023-04-03T02:55:55;3.35;;;2.25;;
64313;SDS011;50650;48.180;11.524;2023-04-03T02:58:23;3.28;;;2.25;;
64313;SDS011;50650;48.180;11.524;2023-04-03T03:00:50;3.78;;;1.77;;
64313;SDS011;50650;48.180;11.524;2023-04-03T03:03:16;4.47;;;2.22;;
64313;SDS011;50650;48.180;11.524;2023-04-03T03:05:42;2.97;;;2.30;;
64313;SDS011;50650;48.180;11.524;2023-04-03T03:08:09;3.25;;;2.03;;
64313;SDS011;50650;48.180;11.524;2023-04-03T03:10:35;4.18;;;1.80;;
64313;SDS011;50650;48.180;11.524;2023-04-03T03:13:02;2.80;;;2.17;;
64313;SDS011;50650;48.180;11.524;2023-04-03T03:15:30;2.92;;;2.00;;
64313;SDS011;50650;48.180;11.524;2023-04-03T03:17:56;3.22;;;2.08;;
64313;SDS011;50650;48.180;11.524;2023-04-03T03:20:22;2.90;;;1.77;;
64313;SDS011;50650;48.180;11.524;2023-04-03T03:22:49;2.97;;;2.22;;
64313;SDS011;50650;48.180;11.524;2023-04-03T03:25:15;5.90;;;2.10;;
64313;SDS011;50650;48.180;11.524;2023-04-03T03:27:41;3.20;;;1.80;;
64313;SDS011;50650;48.180;11.524;2023-04-03T03:30:08;3.72;;;1.90;;
64313;SDS011;50650;48.180;11.524;2023-04-03T03:32:36;3.53;;;2.17;;
64313;SDS011;50650;48.180;11.524;2023-04-03T03:35:03;3.63;;;2.08;;
64313;SDS011;50650;48.180;11.524;2023-04-03T03:37:30;2.75;;;2.00;;
64313;SDS011;50650;48.180;11.524;2023-04-03T03:39:56;3.67;;;2.13;;
64313;SDS011;50650;48.180;11.524;2023-04-03T03:42:23;5.32;;;2.00;;
64313;SDS011;50650;48.180;11.524;2023-04-03T03:44:49;2.80;;;1.73;;
64313;SDS011;50650;48.180;11.524;2023-04-03T03:47:16;3.47;;;2.25;;
64313;SDS011;50650;48.180;11.524;2023-04-03T03:49:44;5.35;;;2.00;;
64313;SDS011;50650;48.180;11.524;2023-04-03T03:52:10;2.92;;;1.90;;
64313;SDS011;50650;48.180;11.524;2023-04-03T03:54:37;5.95;;;2.33;;
64313;SDS011;50650;48.180;11.524;2023-04-03T03:57:04;3.45;;;1.90;;
64313;SDS011;50650;48.180;11.524;2023-04-03T03:59:30;2.65;;;1.95;;
64313;SDS011;50650;48.180;11.524;2023-04-03T04:01:57;2.75;;;1.85;;
64313;SDS011;50650;48.180;11.524;2023-04-03T04:04:23;3.88;;;2.42;;
64313;SDS011;50650;48.180;11.524;2023-04-03T04:06:51;4.60;;;2.15;;
64313;SDS011;50650;48.180;11.524;2023-04-03T04:09:17;5.93;;;2.40;;
64313;SDS011;50650;48.180;11.524;2023-04-03T04:11:44;2.42;;;1.73;;
64313;SDS011;50650;48.180;11.524;2023-04-03T04:14:10;3.60;;;2.13;;
64313;SDS011;50650;48.180;11.524;2023-04-03T04:16:37;3.42;;;2.10;;
64313;SDS011;50650;48.180;11.524;2023-04-03T04:19:03;5.00;;;2.17;;
64313;SDS011;50650;48.180;11.524;2023-04-03T04:21:30;3.10;;;2.15;;
64313;SDS011;50650;48.180;11.524;2023-04-03T04:23:58;4.60;;;1.90;;
64313;SDS011;50650;48.180;11.524;2023-04-03T04:26:24;2.88;;;1.90;;
64313;SDS011;50650;48.180;11.524;2023-04-03T04:28:51;3.90;;;2.38;;
64313;SDS011;50650;48.180;11.524;2023-04-03T04:31:17;3.00;;;2.38;;
64313;SDS011;50650;48.180;11.524;2023-04-03T04:33:43;3.65;;;2.42;;
64313;SDS011;50650;48.180;11.524;2023-04-03T04:36:10;4.60;;;2.47;;
64313;SDS011;50650;48.180;11.524;2023-04-03T04:38:36;3.40;;;2.05;;
64313;SDS011;50650;48.180;11.524;2023-04-03T04:41:04;4.25;;;1.90;;
64313;SDS011;50650;48.180;11.524;2023-04-03T04:43:31;2.78;;;1.88;;
64313;SDS011;50650;48.180;11.524;2023-04-03T04:46:01;3.45;;;2.30;;
64313;SDS011;50650;48.180;11.524;2023-04-03T04:48:28;9.60;;;2.25;;
64313;SDS011;50650;48.180;11.524;2023-04-03T04:50:54;3.03;;;1.90;;
64313;SDS011;50650;48.180;11.524;2023-04-03T04:53:21;3.00;;;1.98;;
64313;SDS011;50650;48.180;11.524;2023-04-03T04:55:47;3.45;;;1.80;;
64313;SDS011;50650;48.180;11.524;2023-04-03T04:58:15;4.53;;;2.20;;
64313;SDS011;50650;48.180;11.524;2023-04-03T05:00:41;4.70;;;2.58;;
64313;SDS011;50650;48.180;11.524;2023-04-03T05:03:08;4.05;;;2.00;;
64313;SDS011;50650;48.180;11.524;2023-04-03T05:05:34;4.93;;;2.05;;
64313;SDS011;50650;48.180;11.524;2023-04-03T05:08:01;6.38;;;2.15;;
64313;SDS011;50650;48.180;11.524;2023-04-03T05:10:28;4.03;;;2.45;;
64313;SDS011;50650;48.180;11.524;2023-04-03T05:12:54;5.65;;;2.70;;
64313;SDS011;50650;48.180;11.524;2023-04-03T05:15:22;4.63;;;2.10;;
64313;SDS011;50650;48.180;11.524;2023-04-03T05:17:49;7.07;;;2.47;;
64313;SDS011;50650;48.180;11.524;2023-04-03T05:20:16;4.60;;;2.45;;
64313;SDS011;50650;48.180;11.524;2023-04-03T05:22:42;7.60;;;2.50;;
64313;SDS011;50650;48.180;11.524;2023-04-03T05:25:09;3.78;;;2.17;;
64313;SDS011;50650;48.180;11.524;2023-04-03T05:27:35;3.75;;;2.50;;
64313;SDS011;50650;48.180;11.524;2023-04-03T05:30:02;4.28;;;2.20;;
64313;SDS011;50650;48.180;11.524;2023-04-03T05:32:30;4.68;;;2.60;;
64313;SDS011;50650;48.180;11.524;2023-04-03T05:34:57;4.28;;;2.50;;
64313;SDS011;50650;48.180;11.524;2023-04-03T05:37:23;5.22;;;2.47;;
64313;SDS011;50650;48.180;11.524;2023-04-03T05:39:49;3.65;;;2.15;;
64313;SDS011;50650;48.180;11.524;2023-04-03T05:42:16;4.72;;;2.20;;
64313;SDS011;50650;48.180;11.524;2023-04-03T05:44:42;4.68;;;2.15;;
64313;SDS011;50650;48.180;11.524;2023-04-03T05:47:11;4.20;;;2.22;;
64313;SDS011;50650;48.180;11.524;2023-04-03T05:49:38;4.28;;;2.75;;
64313;SDS011;50650;48.180;11.524;2023-04-03T05:52:05;6.20;;;2.53;;
64313;SDS011;50650;48.180;11.524;2023-04-03T05:54:32;6.13;;;2.60;;
64313;SDS011;50650;48.180;11.524;2023-04-03T05:56:58;2.80;;;2.17;;
64313;SDS011;50650;48.180;11.524;2023-04-03T05:59:25;4.40;;;2.38;;
64313;SDS011;50650;48.180;11.524;2023-04-03T06:01:51;6.97;;;2.40;;
64313;SDS011;50650;48.180;11.524;2023-04-03T06:04:18;6.38;;;2.47;;
64313;SDS011;50650;48.180;11.524;2023-04-03T06:06:48;6.00;;;2.88;;
64313;SDS011;50650;48.180;11.524;2023-04-03T06:09:16;3.35;;;2.25;;
64313;SDS011;50650;48.180;11.524;2023-04-03T06:11:43;4.15;;;2.75;;
64313;SDS011;50650;48.180;11.524;2023-04-03T06:14:10;3.50;;;2.33;;
64313;SDS011;50650;48.180;11.524;2023-04-03T06:16:37;7.43;;;2.63;;
64313;SDS011;50650;48.180;11.524;2023-04-03T06:19:04;4.30;;;2.72;;
64313;SDS011;50650;48.180;11.524;2023-04-03T06:21:31;9.02;;;2.40;;
64313;SDS011;50650;48.180;11.524;2023-04-03T06:23:59;3.47;;;2.67;;
64313;SDS011;50650;48.180;11.524;2023-04-03T06:26:25;4.25;;;2.47;;
64313;SDS011;50650;48.180;11.524;2023-04-03T06:28:52;6.63;;;2.38;;
64313;SDS011;50650;48.180;11.524;2023-04-03T06:31:18;4.45;;;2.85;;
64313;SDS011;50650;48.180;11.524;2023-04-03T06:33:45;3.83;;;2.63;;
64313;SDS011;50650;48.180;11.524;2023-04-03T06:36:11;3.58;;;2.67;;
64313;SDS011;50650;48.180;11.524;2023-04-03T06:38:38;3.63;;;2.28;;
64313;SDS011;50650;48.180;11.524;2023-04-03T06:41:06;4.30;;;2.50;;
64313;SDS011;50650;48.180;11.524;2023-04-03T06:43:32;5.30;;;2.72;;
64313;SDS011;50650;48.180;11.524;2023-04-03T06:45:59;5.38;;;2.78;;
64313;SDS011;50650;48.180;11.524;2023-04-03T06:48:25;4.00;;;2.60;;
64313;SDS011;50650;48.180;11.524;2023-04-03T06:50:51;5.10;;;2.67;;
64313;SDS011;50650;48.180;11.524;2023-04-03T06:53:19;3.83;;;2.60;;
64313;SDS011;50650;48.180;11.524;2023-04-03T06:55:45;3.22;;;2.35;;
64313;SDS011;50650;48.180;11.524;2023-04-03T06:58:14;5.30;;;2.75;;
64313;SDS011;50650;48.180;11.524;2023-04-03T07:00:42;2.70;;;2.05;;
64313;SDS011;50650;48.180;11.524;2023-04-03T07:03:08;4.38;;;2.75;;
64313;SDS011;50650;48.180;11.524;2023-04-03T07:05:35;7.65;;;2.78;;
64313;SDS011;50650;48.180;11.524;2023-04-03T07:08:01;4.05;;;2.53;;
64313;SDS011;50650;48.180;11.524;2023-04-03T07:10:27;4.55;;;2.40;;
64313;SDS011;50650;48.180;11.524;2023-04-03T07:12:54;4.63;;;2.85;;
64313;SDS011;50650;48.180;11.524;2023-04-03T07:15:22;3.88;;;2.70;;
64313;SDS011;50650;48.180;11.524;2023-04-03T07:17:49;4.72;;;2.50;;
64313;SDS011;50650;48.180;11.524;2023-04-03T07:20:16;4.70;;;2.35;;
64313;SDS011;50650;48.180;11.524;2023-04-03T07:22:42;4.30;;;2.85;;
64313;SDS011;50650;48.180;11.524;2023-04-03T07:25:09;6.72;;;2.97;;
64313;SDS011;50650;48.180;11.524;2023-04-03T07:27:35;3.35;;;2.45;;
64313;SDS011;50650;48.180;11.524;2023-04-03T07:30:02;5.00;;;2.72;;
64313;SDS011;50650;48.180;11.524;2023-04-03T07:32:30;6.30;;;2.40;;
64313;SDS011;50650;48.180;11.524;2023-04-03T07:34:57;6.03;;;3.00;;
64313;SDS011;50650;48.180;11.524;2023-04-03T07:37:23;3.40;;;2.70;;
64313;SDS011;50650;48.180;11.524;2023-04-03T07:39:50;4.32;;;2.95;;
64313;SDS011;50650;48.180;11.524;2023-04-03T07:42:16;4.97;;;2.75;;
64313;SDS011;50650;48.180;11.524;2023-04-03T07:44:42;4.63;;;3.10;;
64313;SDS011;50650;48.180;11.524;2023-04-03T07:47:09;4.55;;;3.00;;
64313;SDS011;50650;48.180;11.524;2023-04-03T07:49:37;4.85;;;3.10;;
64313;SDS011;50650;48.180;11.524;2023-04-03T07:52:05;5.35;;;3.30;;
64313;SDS011;50650;48.180;11.524;2023-04-03T07:54:32;3.63;;;2.58;;
64313;SDS011;50650;48.180;11.524;2023-04-03T07:56:58;9.13;;;3.78;;
64313;SDS011;50650;48.180;11.524;2023-04-03T07:59:25;5.97;;;2.70;;
64313;SDS011;50650;48.180;11.524;2023-04-03T08:01:51;5.35;;;3.22;;
64313;SDS011;50650;48.180;11.524;2023-04-03T08:04:19;3.53;;;2.70;;
64313;SDS011;50650;48.180;11.524;2023-04-03T08:06:46;4.55;;;2.80;;
64313;SDS011;50650;48.180;11.524;2023-04-03T08:09:13;4.13;;;2.67;;
64313;SDS011;50650;48.180;11.524;2023-04-03T08:11:40;8.32;;;3.20;;
64313;SDS011;50650;48.180;11.524;2023-04-03T08:14:07;5.22;;;3.38;;
64313;SDS011;50650;48.180;11.524;2023-04-03T08:16:40;4.57;;;2.92;;
64313;SDS011;50650;48.180;11.524;2023-04-03T08:19:07;4.45;;;2.80;;
64313;SDS011;50650;48.180;11.524;2023-04-03T08:21:33;5.43;;;3.00;;
64313;SDS011;50650;48.180;11.524;2023-04-03T08:24:01;5.43;;;3.30;;
64313;SDS011;50650;48.180;11.524;2023-04-03T08:26:28;7.18;;;3.28;;
64313;SDS011;50650;48.180;11.524;2023-04-03T08:28:54;5.07;;;3.00;;
64313;SDS011;50650;48.180;11.524;2023-04-03T08:31:21;5.35;;;3.13;;
64313;SDS011;50650;48.180;11.524;2023-04-03T08:33:47;6.05;;;3.60;;
64313;SDS011;50650;48.180;11.524;2023-04-03T08:36:18;5.32;;;3.10;;
64313;SDS011;50650;48.180;11.524;2023-04-03T08:38:46;3.28;;;2.88;;
64313;SDS011;50650;48.180;11.524;2023-04-03T08:41:15;3.90;;;3.00;;
64313;SDS011;50650;48.180;11.524;2023-04-03T08:43:50;6.88;;;2.75;;
64313;SDS011;50650;48.180;11.524;2023-04-03T08:46:22;4.90;;;2.95;;
64313;SDS011;50650;48.180;11.524;2023-04-03T08:48:51;4.85;;;2.83;;
64313;SDS011;50650;48.180;11.524;2023-04-03T08:51:18;4.38;;;2.72;;
64313;SDS011;50650;48.180;11.524;2023-04-03T08:53:47;5.38;;;3.15;;
64313;SDS011;50650;48.180;11.524;2023-04-03T08:56:20;3.22;;;2.70;;
64313;SDS011;50650;48.180;11.524;2023-04-03T08:58:50;5.78;;;2.80;;
64313;SDS011;50650;48.180;11.524;2023-04-03T09:01:20;9.60;;;3.30;;
64313;SDS011;50650;48.180;11.524;2023-04-03T09:03:48;4.65;;;2.83;;
64313;SDS011;50650;48.180;11.524;2023-04-03T09:06:15;3.28;;;2.25;;
64313;SDS011;50650;48.180;11.524;2023-04-03T09:08:43;3.65;;;2.70;;
64313;SDS011;50650;48.180;11.524;2023-04-03T09:11:13;6.82;;;3.15;;
64313;SDS011;50650;48.180;11.524;2023-04-03T09:13:45;5.75;;;2.92;;
64313;SDS011;50650;48.180;11.524;2023-04-03T09:16:20;7.18;;;3.20;;
64313;SDS011;50650;48.180;11.524;2023-04-03T09:18:51;6.95;;;2.92;;
64313;SDS011;50650;48.180;11.524;2023-04-03T09:21:21;5.47;;;2.63;;
64313;SDS011;50650;48.180;11.524;2023-04-03T09:23:51;4.43;;;2.90;;
64313;SDS011;50650;48.180;11.524;2023-04-03T09:26:18;5.13;;;2.90;;
64313;SDS011;50650;48.180;11.524;2023-04-03T09:28:48;7.35;;;2.72;;
64313;SDS011;50650;48.180;11.524;2023-04-03T09:31:19;5.45;;;2.33;;
64313;SDS011;50650;48.180;11.524;2023-04-03T09:33:47;3.83;;;2.58;;
64313;SDS011;50650;48.180;11.524;2023-04-03T09:36:22;5.03;;;2.60;;
64313;SDS011;50650;48.180;11.524;2023-04-03T09:39:03;4.75;;;2.67;;
64313;SDS011;50650;48.180;11.524;2023-04-03T09:41:30;5.38;;;2.38;;
64313;SDS011;50650;48.180;11.524;2023-04-03T09:43:59;4.93;;;2.40;;
64313;SDS011;50650;48.180;11.524;2023-04-03T09:46:28;3.75;;;2.30;;
64313;SDS011;50650;48.180;11.524;2023-04-03T09:48:56;6.50;;;2.58;;
64313;SDS011;50650;48.180;11.524;2023-04-03T09:51:25;4.72;;;2.60;;
64313;SDS011;50650;48.180;11.524;2023-04-03T09:53:53;5.88;;;2.50;;
64313;SDS011;50650;48.180;11.524;2023-04-03T09:56:21;5.70;;;2.75;;
64313;SDS011;50650;48.180;11.524;2023-04-03T09:58:51;3.95;;;2.50;;
64313;SDS011;50650;48.180;11.524;2023-04-03T10:01:22;5.60;;;2.20;;
64313;SDS011;50650;48.180;11.524;2023-04-03T10:04:02;3.50;;;2.50;;
64313;SDS011;50650;48.180;11.524;2023-04-03T10:06:34;4.53;;;2.60;;
64313;SDS011;50650;48.180;11.524;2023-04-03T10:09:02;5.07;;;2.30;;
64313;SDS011;50650;48.180;11.524;2023-04-03T10:11:30;2.97;;;2.17;;
64313;SDS011;50650;48.180;11.524;2023-04-03T10:13:57;5.72;;;2.08;;
64313;SDS011;50650;48.180;11.524;2023-04-03T10:16:27;6.20;;;2.40;;
64313;SDS011;50650;48.180;11.524;2023-04-03T10:22:03;6.55;;;2.70;;
64313;SDS011;50650;48.180;11.524;2023-04-03T10:24:36;5.65;;;3.10;;
64313;SDS011;50650;48.180;11.524;2023-04-03T10:27:08;5.88;;;2.30;;
64313;SDS011;50650;48.180;11.524;2023-04-03T10:29:39;4.82;;;2.22;;
64313;SDS011;50650;48.180;11.524;2023-04-03T10:34:57;4.10;;;2.25;;
64313;SDS011;50650;48.180;11.524;2023-04-03T10:37:29;4.13;;;1.80;;
64313;SDS011;50650;48.180;11.524;2023-04-03T10:40:02;2.47;;;1.65;;
64313;SDS011;50650;48.180;11.524;2023-04-03T10:42:33;4.95;;;2.30;;
64313;SDS011;50650;48.180;11.524;2023-04-03T10:45:07;3.70;;;2.25;;
64313;SDS011;50650;48.180;11.524;2023-04-03T10:47:44;5.90;;;2.10;;
64313;SDS011;50650;48.180;11.524;2023-04-03T10:50:21;4.40;;;1.85;;
64313;SDS011;50650;48.180;11.524;2023-04-03T10:52:53;5.18;;;1.85;;
64313;SDS011;50650;48.180;11.524;2023-04-03T10:55:24;3.95;;;1.88;;
64313;SDS011;50650;48.180;11.524;2023-04-03T10:57:58;5.38;;;2.03;;
64313;SDS011;50650;48.180;11.524;2023-04-03T11:00:26;4.85;;;1.70;;
64313;SDS011;50650;48.180;11.524;2023-04-03T11:02:58;3.70;;;1.85;;
64313;SDS011;50650;48.180;11.524;2023-04-03T11:05:27;7.07;;;1.90;;
64313;SDS011;50650;48.180;11.524;2023-04-03T11:07:57;5.50;;;1.80;;
64313;SDS011;50650;48.180;11.524;2023-04-03T11:10:30;3.03;;;1.75;;
64313;SDS011;50650;48.180;11.524;2023-04-03T11:12:59;3.03;;;1.63;;
64313;SDS011;50650;48.180;11.524;2023-04-03T11:15:29;3.50;;;1.70;;
64313;SDS011;50650;48.180;11.524;2023-04-03T11:18:00;2.90;;;1.52;;
64313;SDS011;50650;48.180;11.524;2023-04-03T11:20:31;5.50;;;1.60;;
64313;SDS011;50650;48.180;11.524;2023-04-03T11:23:00;3.50;;;1.70;;
64313;SDS011;50650;48.180;11.524;2023-04-03T11:25:29;7.55;;;1.83;;
64313;SDS011;50650;48.180;11.524;2023-04-03T11:27:57;4.72;;;1.77;;
64313;SDS011;50650;48.180;11.524;2023-04-03T11:30:25;5.63;;;2.58;;
64313;SDS011;50650;48.180;11.524;2023-04-03T11:35:53;2.75;;;1.60;;
64313;SDS011;50650;48.180;11.524;2023-04-03T11:38:23;3.13;;;1.65;;
64313;SDS011;50650;48.180;11.524;2023-04-03T11:40:54;2.17;;;1.30;;
64313;SDS011;50650;48.180;11.524;2023-04-03T11:43:22;4.88;;;1.80;;
64313;SDS011;50650;48.180;11.524;2023-04-03T11:45:55;3.55;;;1.20;;
64313;SDS011;50650;48.180;11.524;2023-04-03T11:51:39;2.83;;;1.20;;
64313;SDS011;50650;48.180;11.524;2023-04-03T11:57:23;3.50;;;1.20;;
64313;SDS011;50650;48.180;11.524;2023-04-03T12:09:25;3.47;;;1.23;;
64313;SDS011;50650;48.180;11.524;2023-04-03T12:11:58;3.45;;;1.05;;
64313;SDS011;50650;48.180;11.524;2023-04-03T12:14:26;2.00;;;1.17;;
64313;SDS011;50650;48.180;11.524;2023-04-03T12:16:54;3.22;;;1.08;;
64313;SDS011;50650;48.180;11.524;2023-04-03T12:19:35;3.95;;;1.25;;
64313;SDS011;50650;48.180;11.524;2023-04-03T12:22:09;1.80;;;1.23;;
64313;SDS011;50650;48.180;11.524;2023-04-03T12:24:42;3.65;;;1.10;;
64313;SDS011;50650;48.180;11.524;2023-04-03T12:27:24;1.58;;;1.15;;
64313;SDS011;50650;48.180;11.524;2023-04-03T12:29:56;2.55;;;1.13;;
64313;SDS011;50650;48.180;11.524;2023-04-03T12:32:32;2.38;;;1.17;;
64313;SDS011;50650;48.180;11.524;2023-04-03T12:35:21;6.60;;;1.30;;
64313;SDS011;50650;48.180;11.524;2023-04-03T12:40:51;5.00;;;1.27;;
64313;SDS011;50650;48.180;11.524;2023-04-03T12:43:26;3.03;;;1.15;;
64313;SDS011;50650;48.180;11.524;2023-04-03T12:46:02;2.20;;;1.00;;
64313;SDS011;50650;48.180;11.524;2023-04-03T12:48:30;2.00;;;1.30;;
64313;SDS011;50650;48.180;11.524;2023-04-03T12:50:57;2.15;;;0.95;;
64313;SDS011;50650;48.180;11.524;2023-04-03T12:53:25;2.10;;;1.10;;
64313;SDS011;50650;48.180;11.524;2023-04-03T12:55:55;3.97;;;1.40;;
64313;SDS011;50650;48.180;11.524;2023-04-03T12:58:22;2.35;;;1.00;;
64313;SDS011;50650;48.180;11.524;2023-04-03T13:01:00;1.92;;;1.02;;
64313;SDS011;50650;48.180;11.524;2023-04-03T13:03:28;3.00;;;1.08;;
64313;SDS011;50650;48.180;11.524;2023-04-03T13:05:56;3.10;;;1.00;;
64313;SDS011;50650;48.180;11.524;2023-04-03T13:08:25;5.63;;;1.02;;
64313;SDS011;50650;48.180;11.524;2023-04-03T13:10:53;3.65;;;1.25;;
64313;SDS011;50650;48.180;11.524;2023-04-03T13:13:23;3.40;;;1.45;;
64313;SDS011;50650;48.180;11.524;2023-04-03T13:15:53;3.97;;;1.48;;
64313;SDS011;50650;48.180;11.524;2023-04-03T13:18:24;4.88;;;1.33;;
64313;SDS011;50650;48.180;11.524;2023-04-03T13:20:52;4.22;;;1.27;;
64313;SDS011;50650;48.180;11.524;2023-04-03T13:23:20;3.17;;;1.00;;
64313;SDS011;50650;48.180;11.524;2023-04-03T13:25:48;3.17;;;0.90;;
64313;SDS011;50650;48.180;11.524;2023-04-03T13:28:17;3.30;;;1.08;;
64313;SDS011;50650;48.180;11.524;2023-04-03T13:30:56;1.70;;;1.00;;
64313;SDS011;50650;48.180;11.524;2023-04-03T13:33:27;2.28;;;1.05;;
64313;SDS011;50650;48.180;11.524;2023-04-03T13:35:57;1.95;;;1.00;;
64313;SDS011;50650;48.180;11.524;2023-04-03T13:38:26;2.80;;;0.95;;
64313;SDS011;50650;48.180;11.524;2023-04-03T13:40:57;2.33;;;1.08;;
64313;SDS011;50650;48.180;11.524;2023-04-03T13:43:27;2.67;;;1.40;;
64313;SDS011;50650;48.180;11.524;2023-04-03T13:46:00;4.18;;;1.13;;
64313;SDS011;50650;48.180;11.524;2023-04-03T13:48:34;3.03;;;1.17;;
64313;SDS011;50650;48.180;11.524;2023-04-03T13:51:03;2.85;;;1.20;;
64313;SDS011;50650;48.180;11.524;2023-04-03T13:53:31;2.60;;;1.08;;
64313;SDS011;50650;48.180;11.524;2023-04-03T13:56:05;1.73;;;1.00;;
64313;SDS011;50650;48.180;11.524;2023-04-03T13:58:35;2.50;;;1.00;;
64313;SDS011;50650;48.180;11.524;2023-04-03T14:01:07;2.60;;;1.20;;
64313;SDS011;50650;48.180;11.524;2023-04-03T14:03:39;3.13;;;1.08;;
64313;SDS011;50650;48.180;11.524;2023-04-03T14:06:08;8.68;;;1.38;;
64313;SDS011;50650;48.180;11.524;2023-04-03T14:08:36;1.67;;;0.93;;
64313;SDS011;50650;48.180;11.524;2023-04-03T14:11:03;1.88;;;0.90;;
64313;SDS011;50650;48.180;11.524;2023-04-03T14:13:30;1.42;;;0.90;;
64313;SDS011;50650;48.180;11.524;2023-04-03T14:15:58;3.80;;;1.08;;
64313;SDS011;50650;48.180;11.524;2023-04-03T14:18:25;1.88;;;1.00;;
64313;SDS011;50650;48.180;11.524;2023-04-03T14:20:52;2.33;;;1.15;;
64313;SDS011;50650;48.180;11.524;2023-04-03T14:23:18;1.80;;;1.10;;
64313;SDS011;50650;48.180;11.524;2023-04-03T14:25:45;2.83;;;1.27;;
64313;SDS011;50650;48.180;11.524;2023-04-03T14:28:13;3.45;;;0.93;;
64313;SDS011;50650;48.180;11.524;2023-04-03T14:30:41;1.75;;;0.88;;
64313;SDS011;50650;48.180;11.524;2023-04-03T14:33:10;1.40;;;0.80;;
64313;SDS011;50650;48.180;11.524;2023-04-03T14:35:39;2.15;;;1.10;;
64313;SDS011;50650;48.180;11.524;2023-04-03T14:38:09;1.48;;;0.75;;
64313;SDS011;50650;48.180;11.524;2023-04-03T14:40:39;1.77;;;0.93;;
64313;SDS011;50650;48.180;11.524;2023-04-03T14:43:05;1.75;;;1.00;;
64313;SDS011;50650;48.180;11.524;2023-04-03T14:45:32;1.85;;;0.98;;
64313;SDS011;50650;48.180;11.524;2023-04-03T14:47:58;1.60;;;1.02;;
64313;SDS011;50650;48.180;11.524;2023-04-03T14:50:26;1.52;;;0.70;;
64313;SDS011;50650;48.180;11.524;2023-04-03T14:52:54;2.60;;;0.85;;
64313;SDS011;50650;48.180;11.524;2023-04-03T14:55:23;1.33;;;0.80;;
64313;SDS011;50650;48.180;11.524;2023-04-03T14:57:51;2.53;;;0.98;;
64313;SDS011;50650;48.180;11.524;2023-04-03T15:00:18;1.95;;;0.90;;
64313;SDS011;50650;48.180;11.524;2023-04-03T15:02:47;1.75;;;0.95;;
64313;SDS011;50650;48.180;11.524;2023-04-03T15:05:13;1.95;;;0.90;;
64313;SDS011;50650;48.180;11.524;2023-04-03T15:07:42;2.65;;;1.20;;